createdAt,value
2019-02-02T00:01:54.114Z,39.77
2019-02-02T00:04:20.285Z,34.90
2019-02-02T00:06:46.663Z,35.87
2019-02-02T00:09:13.135Z,36.27
2019-02-02T00:11:39.438Z,35.47
2019-02-02T00:14:05.822Z,37.33
2019-02-02T00:16:32.062Z,32.13
2019-02-02T00:18:58.235Z,34.27
2019-02-02T00:21:24.368Z,34.43
2019-02-02T00:23:50.510Z,38.10
2019-02-02T00:26:16.868Z,35.53
2019-02-02T00:28:43.053Z,34.47
2019-02-02T00:31:09.203Z,30.30
2019-02-02T00:33:35.343Z,34.23
2019-02-02T00:36:01.502Z,33.03
2019-02-02T00:38:27.870Z,37.87
2019-02-02T00:40:54.038Z,31.73
2019-02-02T00:43:20.180Z,36.27
2019-02-02T00:45:46.336Z,34.23
2019-02-02T00:48:12.477Z,32.97
2019-02-02T00:50:38.633Z,38.00
2019-02-02T00:53:04.771Z,32.23
2019-02-02T00:55:30.933Z,42.93
2019-02-02T00:57:57.105Z,33.27
2019-02-02T01:00:24.755Z,32.83
2019-02-02T01:02:51.222Z,29.23
2019-02-02T01:05:18.959Z,28.00
2019-02-02T01:07:46.457Z,27.17
2019-02-02T01:10:19.396Z,31.70
2019-02-02T01:12:45.697Z,33.13
2019-02-02T01:15:14.474Z,23.43
2019-02-02T01:17:40.614Z,30.87
2019-02-02T01:20:09.367Z,30.03
2019-02-02T01:22:35.622Z,26.77
2019-02-02T01:25:05.309Z,30.63
2019-02-02T01:27:31.503Z,26.97
2019-02-02T01:29:57.626Z,33.20
2019-02-02T01:32:23.782Z,33.40
2019-02-02T01:34:49.923Z,24.57
2019-02-02T01:37:16.231Z,31.37
2019-02-02T01:39:42.505Z,27.67
2019-02-02T01:42:08.686Z,30.00
2019-02-02T01:44:34.821Z,29.23
2019-02-02T01:47:01.218Z,26.67
2019-02-02T01:49:27.588Z,29.10
2019-02-02T01:51:53.738Z,28.47
2019-02-02T01:54:19.884Z,27.83
2019-02-02T01:56:46.043Z,25.97
2019-02-02T01:59:12.190Z,30.67
2019-02-02T02:01:41.361Z,28.20
2019-02-02T02:04:06.916Z,24.73
2019-02-02T02:06:33.101Z,29.03
2019-02-02T02:08:59.248Z,26.97
2019-02-02T02:11:25.491Z,29.40
2019-02-02T02:13:51.682Z,29.07
2019-02-02T02:16:17.844Z,28.77
2019-02-02T02:18:44.004Z,27.83
2019-02-02T02:21:10.212Z,27.43
2019-02-02T02:23:36.432Z,27.70
2019-02-02T02:26:02.690Z,28.40
2019-02-02T02:28:29.020Z,29.40
2019-02-02T02:30:55.168Z,28.33
2019-02-02T02:33:21.375Z,27.70
2019-02-02T02:35:47.918Z,30.77
2019-02-02T02:38:14.101Z,30.93
2019-02-02T02:40:40.575Z,32.03
2019-02-02T02:43:06.751Z,28.33
2019-02-02T02:45:33.046Z,26.57
2019-02-02T02:47:59.255Z,28.83
2019-02-02T02:50:25.463Z,30.27
2019-02-02T02:52:51.628Z,27.23
2019-02-02T02:55:17.997Z,30.40
2019-02-02T02:57:44.859Z,30.97
2019-02-02T03:00:16.358Z,29.37
2019-02-02T03:02:42.558Z,32.77
2019-02-02T03:05:09.998Z,31.33
2019-02-02T03:07:37.480Z,30.43
2019-02-02T03:10:07.420Z,34.87
2019-02-02T03:12:33.838Z,31.00
2019-02-02T03:15:00.373Z,33.63
2019-02-02T03:17:26.906Z,33.40
2019-02-02T03:19:53.059Z,31.47
2019-02-02T03:22:19.233Z,30.20
2019-02-02T03:24:45.363Z,31.07
2019-02-02T03:27:11.538Z,33.30
2019-02-02T03:29:37.699Z,35.40
2019-02-02T03:32:03.932Z,29.90
2019-02-02T03:34:30.123Z,30.10
2019-02-02T03:36:56.279Z,30.87
2019-02-02T03:39:22.764Z,30.30
2019-02-02T03:41:49.117Z,28.43
2019-02-02T03:44:15.338Z,36.93
2019-02-02T03:46:41.750Z,31.80
2019-02-02T03:49:07.895Z,33.33
2019-02-02T03:51:34.092Z,34.43
2019-02-02T03:54:08.346Z,35.27
2019-02-02T03:56:28.306Z,38.17
2019-02-02T03:59:05.678Z,38.03
2019-02-02T04:01:23.835Z,38.33
2019-02-02T04:03:50.335Z,41.47
2019-02-02T04:06:16.571Z,44.17
2019-02-02T04:08:42.787Z,37.10
2019-02-02T04:11:09.194Z,38.37
2019-02-02T04:13:35.465Z,40.53
2019-02-02T04:16:01.834Z,41.70
2019-02-02T04:18:27.995Z,37.43
2019-02-02T04:20:54.165Z,36.93
2019-02-02T04:23:20.410Z,45.63
2019-02-02T04:25:46.635Z,41.43
2019-02-02T04:28:13.123Z,42.40
2019-02-02T04:30:39.278Z,40.60
2019-02-02T04:33:05.446Z,39.37
2019-02-02T04:35:31.698Z,45.67
2019-02-02T04:37:57.861Z,45.03
2019-02-02T04:40:23.993Z,39.50
2019-02-02T04:42:50.477Z,40.80
2019-02-02T04:45:17.155Z,44.73
2019-02-02T04:47:43.446Z,46.37
2019-02-02T04:50:11.793Z,42.50
2019-02-02T04:52:37.916Z,40.10
2019-02-02T04:55:05.791Z,39.97
2019-02-02T04:57:31.935Z,45.50
2019-02-02T04:59:58.126Z,38.27
2019-02-02T05:02:24.272Z,46.30
2019-02-02T05:04:50.538Z,42.43
2019-02-02T05:07:16.687Z,42.83
2019-02-02T05:09:42.840Z,43.03
2019-02-02T05:12:09.247Z,43.53
2019-02-02T05:14:35.493Z,43.00
2019-02-02T05:17:01.728Z,43.30
2019-02-02T05:19:27.907Z,40.47
2019-02-02T05:21:54.287Z,42.97
2019-02-02T05:24:20.427Z,42.90
2019-02-02T05:26:46.829Z,44.73
2019-02-02T05:29:12.967Z,43.20
2019-02-02T05:31:39.143Z,43.00
2019-02-02T05:34:05.588Z,48.47
2019-02-02T05:36:31.743Z,50.47
2019-02-02T05:38:57.886Z,51.83
2019-02-02T05:41:24.031Z,54.30
2019-02-02T05:43:50.185Z,50.90
2019-02-02T05:46:16.331Z,48.23
2019-02-02T05:48:42.489Z,50.93
2019-02-02T05:51:08.736Z,49.47
2019-02-02T05:53:34.890Z,48.40
2019-02-02T05:56:01.278Z,45.93
2019-02-02T05:58:27.437Z,50.77
2019-02-02T06:00:53.982Z,54.40
2019-02-02T06:03:20.126Z,49.83
2019-02-02T06:05:46.310Z,50.87
2019-02-02T06:08:12.439Z,55.23
2019-02-02T06:10:38.695Z,55.20
2019-02-02T06:13:04.865Z,52.20
2019-02-02T06:15:31.026Z,49.43
2019-02-02T06:17:57.188Z,50.30
2019-02-02T06:20:23.328Z,49.37
2019-02-02T06:22:49.556Z,48.53
2019-02-02T06:25:15.824Z,50.40
2019-02-02T06:27:42.484Z,49.40
2019-02-02T06:30:12.123Z,46.50
2019-02-02T06:32:38.510Z,49.43
2019-02-02T06:35:07.752Z,57.77
2019-02-02T06:37:33.916Z,51.07
2019-02-02T06:40:00.096Z,55.73
2019-02-02T06:42:26.322Z,49.53
2019-02-02T06:44:52.475Z,51.63
2019-02-02T06:47:18.624Z,61.07
2019-02-02T06:49:44.758Z,49.93
2019-02-02T06:52:10.910Z,51.10
2019-02-02T06:54:37.312Z,52.87
2019-02-02T06:57:03.799Z,56.40
2019-02-02T06:59:29.940Z,54.77
2019-02-02T07:01:56.182Z,53.67
2019-02-02T07:04:22.358Z,60.97
2019-02-02T07:06:48.502Z,52.93
2019-02-02T07:09:14.829Z,56.23
2019-02-02T07:11:41.241Z,50.57
2019-02-02T07:14:07.399Z,44.30
2019-02-02T07:16:33.652Z,51.57
2019-02-02T07:18:59.863Z,49.57
2019-02-02T07:21:26.009Z,46.53
2019-02-02T07:23:52.183Z,51.13
2019-02-02T07:26:18.348Z,59.88
2019-02-02T07:28:44.496Z,51.87
2019-02-02T07:31:10.655Z,51.73
2019-02-02T07:33:36.820Z,47.30
2019-02-02T07:36:03.067Z,52.23
2019-02-02T07:38:29.217Z,49.20
2019-02-02T07:40:55.448Z,49.77
2019-02-02T07:43:21.599Z,50.97
2019-02-02T07:45:50.771Z,51.37
2019-02-02T07:48:16.912Z,52.87
2019-02-02T07:50:43.058Z,51.47
2019-02-02T07:53:09.380Z,56.17
2019-02-02T07:55:35.531Z,51.43
2019-02-02T07:58:01.803Z,53.70
2019-02-02T08:00:40.498Z,53.83
2019-02-02T08:02:59.410Z,52.03
2019-02-02T08:05:25.563Z,56.07
2019-02-02T08:07:51.710Z,55.03
2019-02-02T08:10:18.086Z,50.70
2019-02-02T08:12:44.219Z,50.17
2019-02-02T08:15:17.491Z,49.70
2019-02-02T08:17:43.686Z,54.80
2019-02-02T08:20:12.454Z,63.80
2019-02-02T08:22:38.726Z,58.30
2019-02-02T08:25:07.763Z,58.17
2019-02-02T08:27:33.931Z,58.90
2019-02-02T08:30:00.408Z,56.30
2019-02-02T08:32:26.857Z,61.77
2019-02-02T08:34:53.355Z,58.00
2019-02-02T08:37:19.500Z,60.07
2019-02-02T08:39:45.684Z,55.87
2019-02-02T08:42:11.832Z,58.23
2019-02-02T08:44:37.987Z,60.97
2019-02-02T08:47:04.153Z,60.73
2019-02-02T08:49:30.527Z,59.07
2019-02-02T08:51:56.672Z,63.43
2019-02-02T08:54:22.858Z,61.57
2019-02-02T08:56:49.235Z,60.50
2019-02-02T08:59:15.447Z,57.27
2019-02-02T09:01:41.608Z,56.00
2019-02-02T09:04:07.864Z,61.43
2019-02-02T09:06:39.187Z,60.93
2019-02-02T09:09:05.599Z,61.53
2019-02-02T09:11:31.867Z,59.77
2019-02-02T09:13:58.027Z,68.70
2019-02-02T09:16:24.184Z,56.77
2019-02-02T09:18:51.320Z,54.80
2019-02-02T09:21:17.948Z,57.87
2019-02-02T09:23:44.079Z,65.90
2019-02-02T09:26:11.247Z,57.77
2019-02-02T09:28:37.618Z,60.13
2019-02-02T09:31:15.242Z,57.70
2019-02-02T09:33:31.929Z,56.97
2019-02-02T09:35:58.082Z,55.60
2019-02-02T09:38:24.235Z,55.33
2019-02-02T09:40:50.453Z,60.60
2019-02-02T09:43:16.661Z,55.93
2019-02-02T09:45:42.805Z,54.97
2019-02-02T09:48:08.954Z,62.20
2019-02-02T09:50:35.099Z,57.87
2019-02-02T09:53:01.251Z,58.83
2019-02-02T09:55:27.390Z,66.70
2019-02-02T09:57:59.070Z,56.10
2019-02-02T10:00:28.353Z,56.83
2019-02-02T10:02:54.999Z,56.80
2019-02-02T10:05:21.151Z,53.60
2019-02-02T10:07:48.394Z,56.00
2019-02-02T10:10:17.475Z,56.93
2019-02-02T10:12:43.692Z,65.97
2019-02-02T10:15:10.322Z,62.63
2019-02-02T10:17:36.482Z,62.03
2019-02-02T10:20:05.718Z,60.30
2019-02-02T10:22:32.110Z,67.23
2019-02-02T10:24:58.247Z,66.53
2019-02-02T10:27:24.697Z,61.00
2019-02-02T10:29:50.908Z,62.17
2019-02-02T10:32:17.056Z,61.40
2019-02-02T10:34:43.238Z,59.83
2019-02-02T10:37:09.445Z,64.27
2019-02-02T10:39:35.575Z,59.23
2019-02-02T10:42:01.746Z,66.12
2019-02-02T10:44:28.126Z,63.80
2019-02-02T10:46:54.278Z,62.30
2019-02-02T10:49:20.785Z,61.03
2019-02-02T10:51:47.106Z,60.63
2019-02-02T10:54:13.259Z,59.33
2019-02-02T10:56:41.285Z,50.70
2019-02-02T10:59:08.440Z,50.60
2019-02-02T11:01:35.758Z,50.80
2019-02-02T11:04:02.344Z,54.07
2019-02-02T11:06:28.599Z,56.53
2019-02-02T11:08:54.835Z,56.40
2019-02-02T11:11:21.128Z,51.27
2019-02-02T11:13:47.381Z,54.97
2019-02-02T11:16:13.519Z,58.50
2019-02-02T11:18:39.826Z,56.00
2019-02-02T11:21:06.010Z,61.57
2019-02-02T11:23:32.191Z,57.07
2019-02-02T11:25:58.406Z,58.13
2019-02-02T11:28:24.684Z,63.53
2019-02-02T11:30:52.320Z,63.83
2019-02-02T11:33:18.546Z,61.20
2019-02-02T11:35:44.699Z,51.67
2019-02-02T11:38:10.863Z,57.73
2019-02-02T11:40:37.100Z,61.13
2019-02-02T11:43:03.754Z,59.17
2019-02-02T11:45:29.995Z,64.07
2019-02-02T11:47:56.280Z,65.63
2019-02-02T11:50:22.767Z,68.17
2019-02-02T11:52:49.019Z,68.63
2019-02-02T11:55:23.560Z,66.03
2019-02-02T11:57:50.848Z,67.03
2019-02-02T12:00:22.526Z,66.63
2019-02-02T12:02:49.744Z,67.00
2019-02-02T12:05:16.247Z,67.87
2019-02-02T12:07:42.397Z,71.33
2019-02-02T12:10:11.934Z,71.20
2019-02-02T12:12:38.114Z,77.97
2019-02-02T12:15:08.260Z,76.77
2019-02-02T12:17:34.510Z,72.07
2019-02-02T12:20:00.667Z,73.20
2019-02-02T12:22:27.065Z,81.73
2019-02-02T12:24:53.284Z,70.40
2019-02-02T12:27:19.491Z,80.50
2019-02-02T12:29:45.658Z,81.27
2019-02-02T12:32:12.031Z,75.80
2019-02-02T12:34:38.179Z,84.93
2019-02-02T12:37:04.378Z,88.93
2019-02-02T12:39:30.766Z,79.03
2019-02-02T12:41:56.906Z,80.90
2019-02-02T12:44:23.053Z,84.27
2019-02-02T12:46:49.204Z,79.27
2019-02-02T12:49:15.452Z,84.50
2019-02-02T12:51:41.629Z,81.67
2019-02-02T12:54:07.770Z,89.30
2019-02-02T12:56:33.904Z,87.83
2019-02-02T12:59:00.068Z,87.73
2019-02-02T13:01:26.307Z,83.00
2019-02-02T13:04:01.272Z,86.67
2019-02-02T13:06:20.494Z,94.70
2019-02-02T13:08:46.656Z,85.73
2019-02-02T13:11:12.929Z,92.30
2019-02-02T13:13:39.127Z,86.23
2019-02-02T13:16:05.268Z,87.70
2019-02-02T13:18:31.461Z,90.90
2019-02-02T13:20:57.603Z,86.60
2019-02-02T13:23:23.985Z,91.50
2019-02-02T13:25:50.146Z,89.37
2019-02-02T13:28:16.286Z,90.13
2019-02-02T13:30:42.431Z,94.03
2019-02-02T13:33:08.809Z,92.40
2019-02-02T13:35:35.967Z,87.03
2019-02-02T13:38:02.301Z,84.17
2019-02-02T13:40:28.547Z,87.90
2019-02-02T13:42:55.698Z,82.47
2019-02-02T13:45:22.583Z,81.47
2019-02-02T13:47:48.848Z,86.83
2019-02-02T13:50:16.152Z,78.20
2019-02-02T13:52:43.841Z,75.97
2019-02-02T13:57:39.558Z,82.03
2019-02-02T14:00:15.355Z,85.93
2019-02-02T14:02:41.814Z,71.57
2019-02-02T14:05:13.043Z,84.13
2019-02-02T14:07:39.406Z,75.67
2019-02-02T14:10:09.155Z,82.27
2019-02-02T14:12:35.329Z,77.93
2019-02-02T14:15:01.491Z,75.07
2019-02-02T14:17:27.886Z,80.53
2019-02-02T14:19:54.027Z,80.53
2019-02-02T14:22:20.236Z,85.67
2019-02-02T14:24:46.425Z,83.43
2019-02-02T14:27:12.619Z,85.07
2019-02-02T14:29:38.986Z,84.57
2019-02-02T14:32:05.138Z,79.43
2019-02-02T14:34:39.920Z,84.17
2019-02-02T14:36:59.335Z,83.87
2019-02-02T14:39:25.479Z,80.90
2019-02-02T14:41:51.649Z,86.80
2019-02-02T14:44:17.806Z,88.77
2019-02-02T14:46:43.970Z,88.97
2019-02-02T14:49:10.137Z,95.20
2019-02-02T14:51:36.301Z,85.40
2019-02-02T14:54:02.775Z,95.67
2019-02-02T14:56:28.929Z,96.07
2019-02-02T14:58:55.083Z,100.33
2019-02-02T15:01:21.291Z,100.93
2019-02-02T15:03:47.591Z,88.47
2019-02-02T15:06:13.794Z,95.13
2019-02-02T15:08:40.190Z,88.90
2019-02-02T15:11:06.333Z,95.00
2019-02-02T15:13:32.492Z,101.13
2019-02-02T15:15:58.648Z,99.97
2019-02-02T15:18:24.790Z,103.97
2019-02-02T15:20:51.156Z,105.50
2019-02-02T15:23:17.315Z,98.33
2019-02-02T15:25:43.447Z,92.40
2019-02-02T15:28:09.606Z,113.23
2019-02-02T15:30:35.738Z,100.90
2019-02-02T15:33:02.627Z,101.33
2019-02-02T15:35:29.005Z,101.70
2019-02-02T15:37:55.154Z,118.30
2019-02-02T15:40:21.403Z,106.00
2019-02-02T15:42:48.447Z,102.67
2019-02-02T15:45:17.007Z,136.47
2019-02-02T15:47:43.162Z,112.50
2019-02-02T15:50:12.608Z,110.50
2019-02-02T15:52:38.875Z,106.73
2019-02-02T15:55:13.422Z,136.23
2019-02-02T15:57:39.579Z,111.20
2019-02-02T16:00:09.645Z,107.87
2019-02-02T16:02:36.116Z,114.93
2019-02-02T16:05:06.088Z,120.43
2019-02-02T16:07:33.227Z,104.47
2019-02-02T16:09:59.407Z,103.00
2019-02-02T16:12:25.805Z,102.63
2019-02-02T16:14:52.098Z,101.97
2019-02-02T16:17:19.800Z,107.23
2019-02-02T16:19:45.983Z,102.63
2019-02-02T16:22:12.123Z,104.37
2019-02-02T16:24:38.273Z,106.17
2019-02-02T16:27:04.464Z,102.57
2019-02-02T16:29:31.544Z,100.20
2019-02-02T16:31:57.718Z,101.80
2019-02-02T16:34:23.879Z,93.47
2019-02-02T16:36:50.249Z,108.97
2019-02-02T16:39:16.395Z,119.13
2019-02-02T16:41:42.565Z,106.97
2019-02-02T16:44:09.698Z,97.67
2019-02-02T16:46:35.865Z,95.27
2019-02-02T16:49:02.263Z,96.90
2019-02-02T16:51:28.431Z,102.47
2019-02-02T16:53:54.632Z,103.17
2019-02-02T16:56:21.166Z,102.13
2019-02-02T16:58:47.312Z,106.33
2019-02-02T17:01:13.510Z,112.20
2019-02-02T17:03:39.666Z,101.80
2019-02-02T17:06:05.915Z,94.70
2019-02-02T17:08:32.076Z,101.33
2019-02-02T17:10:58.235Z,107.37
2019-02-02T17:13:24.655Z,102.60
2019-02-02T17:15:50.863Z,100.97
2019-02-02T17:18:17.002Z,107.17
2019-02-02T17:20:43.408Z,103.43
2019-02-02T17:23:09.546Z,108.00
2019-02-02T17:25:36.003Z,109.70
2019-02-02T17:28:02.759Z,109.13
2019-02-02T17:30:29.008Z,110.03
2019-02-02T17:32:58.660Z,111.30
2019-02-02T17:35:25.054Z,116.43
2019-02-02T17:37:51.436Z,120.47
2019-02-02T17:40:21.718Z,104.57
2019-02-02T17:42:48.193Z,110.07
2019-02-02T17:45:16.485Z,107.97
2019-02-02T17:47:42.854Z,121.10
2019-02-02T17:50:14.122Z,118.77
2019-02-02T17:52:40.498Z,107.83
2019-02-02T17:55:08.384Z,109.67
2019-02-02T17:57:34.871Z,111.53
2019-02-02T18:00:01.129Z,104.80
2019-02-02T18:02:27.371Z,109.50
2019-02-02T18:04:53.532Z,103.40
2019-02-02T18:07:19.670Z,115.20
2019-02-02T18:09:46.856Z,110.10
2019-02-02T18:12:13.160Z,114.67
2019-02-02T18:14:39.555Z,113.03
2019-02-02T18:17:05.760Z,115.17
2019-02-02T18:19:32.348Z,115.07
2019-02-02T18:21:58.494Z,111.20
2019-02-02T18:24:24.647Z,104.77
2019-02-02T18:26:50.788Z,107.10
2019-02-02T18:29:17.019Z,104.77
2019-02-02T18:31:43.173Z,113.03
2019-02-02T18:34:09.329Z,107.23
2019-02-02T18:36:35.499Z,100.90
2019-02-02T18:39:01.760Z,105.07
2019-02-02T18:41:29.798Z,96.70
2019-02-02T18:43:55.967Z,100.60
2019-02-02T18:46:22.189Z,99.37
2019-02-02T18:48:48.480Z,98.00
2019-02-02T18:51:14.619Z,94.33
2019-02-02T18:53:41.137Z,94.30
2019-02-02T18:56:07.514Z,93.30
2019-02-02T18:58:34.664Z,96.07
2019-02-02T19:01:00.839Z,101.37
2019-02-02T19:03:26.995Z,89.17
2019-02-02T19:05:53.157Z,99.57
2019-02-02T19:08:19.294Z,93.67
2019-02-02T19:10:45.439Z,99.70
2019-02-02T19:13:11.827Z,87.77
2019-02-02T19:15:37.989Z,92.80
2019-02-02T19:18:05.560Z,93.60
2019-02-02T19:20:31.783Z,89.47
2019-02-02T19:22:57.948Z,87.27
2019-02-02T19:25:24.279Z,81.43
2019-02-02T19:27:50.426Z,81.60
2019-02-02T19:30:30.528Z,87.50
2019-02-02T19:32:56.672Z,88.10
2019-02-02T19:35:23.488Z,87.47
2019-02-02T19:37:49.658Z,84.57
2019-02-02T19:40:16.301Z,87.27
2019-02-02T19:42:42.651Z,98.30
2019-02-02T19:45:12.577Z,80.57
2019-02-02T19:47:39.080Z,77.57
2019-02-02T19:50:09.072Z,88.87
2019-02-02T19:52:35.465Z,85.80
2019-02-02T19:55:13.404Z,87.83
2019-02-02T19:57:30.114Z,87.07
2019-02-02T19:59:56.503Z,89.00
2019-02-02T20:02:22.646Z,92.90
2019-02-02T20:04:49.027Z,82.00
2019-02-02T20:07:15.170Z,90.90
2019-02-02T20:09:41.323Z,84.40
2019-02-02T20:12:09.130Z,81.30
2019-02-02T20:14:35.573Z,84.60
2019-02-02T20:17:01.743Z,82.93
2019-02-02T20:19:27.891Z,83.63
2019-02-02T20:21:54.315Z,86.27
2019-02-02T20:24:20.461Z,82.93
2019-02-02T20:26:46.623Z,86.90
2019-02-02T20:29:12.767Z,80.63
2019-02-02T20:31:38.923Z,89.70
2019-02-02T20:34:05.068Z,92.77
2019-02-02T20:36:31.225Z,88.17
2019-02-02T20:38:57.471Z,88.97
2019-02-02T20:41:23.858Z,86.53
2019-02-02T20:43:50.135Z,97.90
2019-02-02T20:46:16.345Z,104.70
2019-02-02T20:48:42.510Z,109.63
2019-02-02T20:51:08.663Z,111.60
2019-02-02T20:53:35.817Z,109.97
2019-02-02T20:56:01.967Z,104.60
2019-02-02T20:58:28.149Z,113.60
2019-02-02T21:00:54.610Z,109.60
2019-02-02T21:03:20.771Z,122.33
2019-02-02T21:05:52.371Z,110.23
2019-02-02T21:08:15.170Z,117.77
2019-02-02T21:10:44.405Z,124.20
2019-02-02T21:13:09.366Z,121.40
2019-02-02T21:15:35.510Z,124.20
2019-02-02T21:18:03.084Z,134.30
2019-02-02T21:20:29.610Z,130.97
2019-02-02T21:22:55.883Z,133.50
2019-02-02T21:25:22.223Z,141.07
2019-02-02T21:27:48.476Z,122.53
2019-02-02T21:30:21.200Z,131.17
2019-02-02T21:32:47.357Z,119.47
2019-02-02T21:35:13.611Z,125.43
2019-02-02T21:37:39.762Z,120.73
2019-02-02T21:40:11.947Z,116.27
2019-02-02T21:42:38.100Z,122.43
2019-02-02T21:45:07.950Z,119.63
2019-02-02T21:47:34.210Z,122.37
2019-02-02T21:50:00.347Z,119.20
2019-02-02T21:52:26.712Z,123.00
2019-02-02T21:54:52.855Z,128.30
2019-02-02T21:57:19.010Z,138.23
2019-02-02T21:59:45.137Z,139.40
2019-02-02T22:02:11.559Z,158.67
2019-02-02T22:04:37.690Z,153.47
2019-02-02T22:07:03.948Z,148.23
2019-02-02T22:09:30.630Z,145.00
2019-02-02T22:11:56.787Z,146.17
2019-02-02T22:14:22.965Z,139.13
2019-02-02T22:16:49.103Z,130.47
2019-02-02T22:19:15.258Z,128.50
2019-02-02T22:21:41.678Z,124.37
2019-02-02T22:24:07.834Z,116.90
2019-02-02T22:26:34.291Z,127.73
2019-02-02T22:29:00.572Z,130.70
2019-02-02T22:31:26.795Z,124.97
2019-02-02T22:33:53.199Z,123.03
2019-02-02T22:36:26.939Z,125.13
2019-02-02T22:38:47.398Z,116.30
2019-02-02T22:41:13.536Z,120.90
2019-02-02T22:43:39.791Z,116.23
2019-02-02T22:46:05.922Z,124.57
2019-02-02T22:48:32.086Z,123.60
2019-02-02T22:50:58.226Z,113.17
2019-02-02T22:53:24.619Z,115.67
2019-02-02T22:55:50.772Z,119.80
2019-02-02T22:58:16.924Z,120.60
2019-02-02T23:00:57.338Z,123.63
2019-02-02T23:03:27.199Z,110.17
2019-02-02T23:05:59.894Z,107.33
2019-02-02T23:08:33.877Z,114.03
2019-02-02T23:11:19.012Z,118.77
2019-02-02T23:14:04.045Z,109.40
2019-02-02T23:16:30.595Z,112.57
2019-02-02T23:18:57.357Z,115.97
2019-02-02T23:21:23.583Z,117.57
2019-02-02T23:23:50.035Z,116.40
2019-02-02T23:26:16.176Z,110.70
2019-02-02T23:28:43.326Z,110.77
2019-02-02T23:31:09.465Z,111.57
2019-02-02T23:33:36.031Z,118.73
2019-02-02T23:36:02.387Z,116.43
2019-02-02T23:38:28.530Z,119.67
2019-02-02T23:40:54.915Z,111.87
2019-02-02T23:43:21.067Z,116.80
2019-02-02T23:45:47.230Z,114.33
2019-02-02T23:48:13.371Z,113.47
2019-02-02T23:50:39.519Z,112.43
2019-02-02T23:53:05.669Z,115.20
2019-02-02T23:55:31.822Z,114.50
2019-02-02T23:57:57.965Z,124.07
